Time;durP1;ratioP1;P1;durP2;ratioP2;P2;SDS_P1;SDS_P2;PMS_P1;PMS_P2;Temp;Humidity;BMP_temperature;BMP_pressure;BME280_temperature;BME280_humidity;BME280_pressure;Samples;Min_cycle;Max_cycle;Signal;HPM_P1;HPM_P2
2024/01/09 00:00:58;;;;;;;14.47;10.53;;;0.50;77.50;;;;;;6288650;28;20188;-63
2024/01/09 00:03:58;;;;;;;14.43;10.13;;;0.60;77.30;;;;;;6267320;28;20242;-62
2024/01/09 00:06:59;;;;;;;13.60;10.07;;;0.60;77.30;;;;;;6285470;28;20195;-63
2024/01/09 00:10:00;;;;;;;15.20;10.67;;;0.60;77.00;;;;;;6260850;28;20316;-63
2024/01/09 00:13:01;;;;;;;14.47;9.73;;;0.60;77.70;;;;;;6287892;28;20190;-62
2024/01/09 00:16:01;;;;;;;13.33;10.27;;;0.50;77.80;;;;;;6287403;28;20196;-64
2024/01/09 00:19:02;;;;;;;12.97;9.33;;;0.50;77.10;;;;;;6271486;28;20224;-61
2024/01/09 00:22:03;;;;;;;15.83;10.33;;;0.50;77.10;;;;;;6269438;28;20273;-61
2024/01/09 00:25:04;;;;;;;15.33;11.53;;;0.50;77.40;;;;;;6271017;28;20236;-61
2024/01/09 00:28:05;;;;;;;16.00;10.10;;;0.60;77.20;;;;;;6287401;28;20212;-62
2024/01/09 00:31:05;;;;;;;15.50;10.80;;;0.50;77.20;;;;;;6259119;28;20218;-61
2024/01/09 00:34:07;;;;;;;15.13;10.73;;;0.50;77.80;;;;;;6272149;28;20271;-61
2024/01/09 00:37:08;;;;;;;18.00;10.97;;;0.50;77.70;;;;;;6299634;28;20192;-61
2024/01/09 00:40:09;;;;;;;17.97;10.80;;;0.40;78.10;;;;;;6265519;28;20211;-61
2024/01/09 00:43:10;;;;;;;14.43;9.43;;;0.40;78.60;;;;;;6276786;28;20219;-61
2024/01/09 00:46:11;;;;;;;15.20;10.10;;;0.40;79.00;;;;;;6266819;28;20219;-61
2024/01/09 00:49:11;;;;;;;14.30;10.70;;;0.40;78.70;;;;;;6260445;28;20216;-61
2024/01/09 00:52:12;;;;;;;14.07;10.53;;;0.40;78.70;;;;;;6262508;28;20251;-61
2024/01/09 00:55:15;;;;;;;13.87;9.90;;;0.30;78.80;;;;;;6271554;28;20188;-61
2024/01/09 00:58:15;;;;;;;14.77;11.03;;;0.30;79.10;;;;;;6306154;28;20236;-61
2024/01/09 01:01:16;;;;;;;14.10;10.67;;;0.30;79.50;;;;;;6277706;28;20188;-61
2024/01/09 01:04:17;;;;;;;12.80;9.67;;;0.40;79.20;;;;;;6283187;28;20188;-61
2024/01/09 01:07:18;;;;;;;15.53;10.30;;;0.40;79.30;;;;;;6301672;28;20186;-61
2024/01/09 01:10:19;;;;;;;15.53;10.17;;;0.40;79.50;;;;;;6273850;28;20208;-61
2024/01/09 01:13:20;;;;;;;14.00;9.13;;;0.50;79.60;;;;;;6267709;28;20180;-61
2024/01/09 01:16:20;;;;;;;13.50;10.23;;;0.50;78.70;;;;;;6261794;28;20187;-61
2024/01/09 01:19:21;;;;;;;15.43;10.83;;;0.50;79.50;;;;;;6264366;28;20199;-62
2024/01/09 01:22:22;;;;;;;15.67;10.37;;;0.40;79.50;;;;;;6261695;28;20221;-61
2024/01/09 01:25:22;;;;;;;14.40;11.10;;;0.30;79.80;;;;;;6266680;28;20188;-61
2024/01/09 01:28:23;;;;;;;13.97;10.47;;;0.30;79.60;;;;;;6286756;28;20216;-61
2024/01/09 01:31:24;;;;;;;14.87;10.03;;;0.20;79.80;;;;;;6270140;28;20193;-61
2024/01/09 01:34:24;;;;;;;15.10;10.03;;;0.30;80.20;;;;;;6274738;28;20181;-61
2024/01/09 01:37:26;;;;;;;12.63;9.53;;;0.40;79.50;;;;;;6269989;28;20185;-61
2024/01/09 01:40:27;;;;;;;14.33;10.63;;;0.40;79.20;;;;;;6290447;28;20198;-62
2024/01/09 01:43:27;;;;;;;12.17;9.57;;;0.40;79.30;;;;;;6265480;28;20184;-61
2024/01/09 01:46:30;;;;;;;13.50;10.43;;;0.50;79.20;;;;;;6261868;28;20239;-62
2024/01/09 01:49:31;;;;;;;14.97;10.30;;;0.50;79.30;;;;;;6294627;28;20216;-61
2024/01/09 01:52:31;;;;;;;13.93;9.77;;;0.50;79.00;;;;;;6262978;28;20184;-61
2024/01/09 01:55:33;;;;;;;13.33;9.57;;;0.60;78.90;;;;;;6283445;28;20251;-61
2024/01/09 01:58:35;;;;;;;13.67;10.03;;;0.60;78.90;;;;;;6276253;28;20232;-61
2024/01/09 02:01:37;;;;;;;15.97;9.97;;;0.50;78.70;;;;;;6283125;28;20188;-61
2024/01/09 02:04:39;;;;;;;12.20;9.60;;;0.40;79.10;;;;;;6269041;28;20185;-61
2024/01/09 02:07:45;;;;;;;15.70;10.10;;;0.40;79.10;;;;;;6266595;28;20197;-62
2024/01/09 02:10:45;;;;;;;15.50;10.07;;;0.50;79.10;;;;;;6305539;28;20669;-62
2024/01/09 02:13:46;;;;;;;14.30;10.23;;;0.40;78.60;;;;;;6265119;28;20216;-61
2024/01/09 02:16:47;;;;;;;17.97;10.67;;;0.40;79.00;;;;;;6272641;28;20176;-61
2024/01/09 02:19:47;;;;;;;14.00;10.47;;;0.50;78.40;;;;;;6278882;28;20224;-61
2024/01/09 02:22:50;;;;;;;13.47;10.47;;;0.50;78.40;;;;;;6269666;28;20195;-61
2024/01/09 02:25:52;;;;;;;13.77;9.70;;;0.60;78.00;;;;;;6299119;28;20189;-61
2024/01/09 02:28:58;;;;;;;13.57;10.23;;;0.50;78.60;;;;;;6256807;28;20224;-61
2024/01/09 02:32:02;;;;;;;13.37;10.43;;;0.50;77.40;;;;;;6297162;28;20205;-61
2024/01/09 02:35:03;;;;;;;15.43;9.97;;;0.50;77.20;;;;;;6291336;28;20192;-61
2024/01/09 02:38:04;;;;;;;12.97;9.77;;;0.40;77.10;;;;;;6264005;28;20193;-61
2024/01/09 02:41:05;;;;;;;12.47;9.63;;;0.40;77.60;;;;;;6263474;28;20196;-61
2024/01/09 02:44:06;;;;;;;12.93;9.80;;;0.40;77.40;;;;;;6268543;28;20217;-61
2024/01/09 02:47:06;;;;;;;13.57;9.33;;;0.30;76.90;;;;;;6275309;28;20192;-62
2024/01/09 02:50:07;;;;;;;14.50;9.93;;;0.30;77.50;;;;;;6270084;28;20259;-61
2024/01/09 02:53:08;;;;;;;14.90;10.43;;;0.30;77.30;;;;;;6279808;28;20194;-61
2024/01/09 02:56:08;;;;;;;14.17;9.33;;;0.30;76.90;;;;;;6269753;28;20249;-62
2024/01/09 02:59:09;;;;;;;13.93;9.80;;;0.20;78.00;;;;;;6263299;28;20340;-61
2024/01/09 03:02:10;;;;;;;15.37;10.10;;;0.30;77.60;;;;;;6264971;28;20199;-61
2024/01/09 03:05:10;;;;;;;15.87;10.23;;;0.30;78.40;;;;;;6272075;28;20196;-61
2024/01/09 03:08:11;;;;;;;17.23;11.47;;;0.30;78.20;;;;;;6257026;28;20219;-61
2024/01/09 03:11:12;;;;;;;15.47;11.00;;;0.40;78.50;;;;;;6284988;28;20213;-61
2024/01/09 03:14:14;;;;;;;15.53;11.47;;;0.30;78.40;;;;;;6263042;28;20209;-61
2024/01/09 03:17:15;;;;;;;15.97;11.07;;;0.30;78.30;;;;;;6301415;28;20189;-61
2024/01/09 03:20:15;;;;;;;15.67;11.53;;;0.30;78.70;;;;;;6302002;28;20193;-61
2024/01/09 03:23:16;;;;;;;13.97;9.77;;;0.30;78.60;;;;;;6271070;28;20203;-61
2024/01/09 03:26:17;;;;;;;13.67;10.27;;;0.30;78.20;;;;;;6268773;28;20289;-61
2024/01/09 03:29:18;;;;;;;14.23;9.60;;;0.30;78.80;;;;;;6288923;28;20244;-61
2024/01/09 03:32:18;;;;;;;15.93;10.57;;;0.30;78.40;;;;;;6270126;28;20564;-61
2024/01/09 03:35:19;;;;;;;16.13;10.63;;;0.30;78.60;;;;;;6276090;28;20212;-61
2024/01/09 03:38:19;;;;;;;16.03;10.60;;;0.30;78.20;;;;;;6272330;28;20200;-61
2024/01/09 03:41:20;;;;;;;13.47;9.57;;;0.20;78.30;;;;;;6285431;28;20276;-61
2024/01/09 03:44:21;;;;;;;14.23;10.13;;;0.20;77.80;;;;;;6267803;28;20193;-61
2024/01/09 03:47:22;;;;;;;13.27;10.10;;;0.00;79.10;;;;;;6274417;28;20207;-61
2024/01/09 03:50:23;;;;;;;14.50;10.10;;;0.10;79.00;;;;;;6261613;28;20202;-61
2024/01/09 03:53:23;;;;;;;15.50;10.73;;;0.10;78.60;;;;;;6275240;28;20192;-62
2024/01/09 03:56:24;;;;;;;14.27;9.60;;;0.00;78.50;;;;;;6284488;28;20197;-61
2024/01/09 03:59:25;;;;;;;15.10;10.97;;;0.00;78.90;;;;;;6270553;28;20236;-61
2024/01/09 04:02:27;;;;;;;14.77;10.70;;;0.20;78.90;;;;;;6272763;28;20212;-61
2024/01/09 04:05:27;;;;;;;17.33;12.07;;;0.20;78.60;;;;;;6275560;28;20191;-61
2024/01/09 04:08:28;;;;;;;17.40;10.33;;;0.20;78.40;;;;;;6273008;28;20232;-61
2024/01/09 04:11:29;;;;;;;12.73;10.27;;;0.20;77.70;;;;;;6283483;28;20192;-61
2024/01/09 04:14:29;;;;;;;14.93;10.03;;;0.20;78.80;;;;;;6282733;28;20192;-61
2024/01/09 04:17:30;;;;;;;12.87;9.97;;;0.30;78.30;;;;;;6269571;28;20272;-61
2024/01/09 04:20:31;;;;;;;14.80;10.10;;;0.30;78.50;;;;;;6279409;28;20274;-61
2024/01/09 04:23:32;;;;;;;16.47;10.33;;;0.30;78.50;;;;;;6259488;28;20421;-61
2024/01/09 04:26:32;;;;;;;16.30;11.93;;;0.30;78.30;;;;;;6261704;28;20204;-60
2024/01/09 04:29:33;;;;;;;13.53;10.57;;;0.40;79.20;;;;;;6265301;28;20220;-60
2024/01/09 04:32:34;;;;;;;14.90;10.37;;;0.40;78.20;;;;;;6288514;28;20188;-60
2024/01/09 04:35:35;;;;;;;16.83;11.50;;;0.30;77.90;;;;;;6271787;28;20238;-60
2024/01/09 04:38:36;;;;;;;14.37;10.57;;;0.40;77.80;;;;;;6269343;28;20193;-60
2024/01/09 04:41:37;;;;;;;15.23;11.33;;;0.30;77.90;;;;;;6266708;28;20228;-61
2024/01/09 04:44:38;;;;;;;13.50;10.23;;;0.30;79.10;;;;;;6269116;28;20189;-60
2024/01/09 04:47:38;;;;;;;15.63;10.73;;;0.30;78.10;;;;;;6262493;28;20184;-60
2024/01/09 04:50:39;;;;;;;12.60;9.40;;;0.40;78.40;;;;;;6272148;28;20186;-61
2024/01/09 04:53:40;;;;;;;14.00;10.50;;;0.30;78.00;;;;;;6282887;28;20191;-60
2024/01/09 04:56:40;;;;;;;15.03;10.90;;;0.40;77.90;;;;;;6285213;28;20192;-61
2024/01/09 04:59:42;;;;;;;15.47;10.57;;;0.40;77.30;;;;;;6258719;28;20363;-60
2024/01/09 05:02:42;;;;;;;14.70;10.70;;;0.40;77.50;;;;;;6267147;28;20227;-61
2024/01/09 05:05:43;;;;;;;14.43;10.20;;;0.30;77.40;;;;;;6265034;28;20224;-61
2024/01/09 05:08:45;;;;;;;17.17;11.20;;;0.40;78.30;;;;;;6270670;28;20250;-61
2024/01/09 05:11:46;;;;;;;16.57;11.77;;;0.40;77.90;;;;;;6279326;28;20181;-60
2024/01/09 05:14:46;;;;;;;13.53;9.17;;;0.40;77.90;;;;;;6273283;28;20196;-62
2024/01/09 05:17:47;;;;;;;15.73;10.57;;;0.40;76.60;;;;;;6288164;28;20193;-59
2024/01/09 05:20:48;;;;;;;13.87;10.57;;;0.30;77.20;;;;;;6270474;28;20189;-61
2024/01/09 05:23:48;;;;;;;14.90;10.50;;;0.40;77.10;;;;;;6273833;28;20192;-60
2024/01/09 05:26:49;;;;;;;13.27;10.10;;;0.40;76.90;;;;;;6271865;28;20188;-60
2024/01/09 05:29:50;;;;;;;14.83;10.20;;;0.40;76.80;;;;;;6266772;28;20235;-62
2024/01/09 05:32:51;;;;;;;15.80;10.93;;;0.40;75.80;;;;;;6278560;28;20192;-63
2024/01/09 05:35:51;;;;;;;15.10;11.13;;;0.30;76.70;;;;;;6272392;28;20289;-63
2024/01/09 05:38:52;;;;;;;15.23;10.20;;;0.40;76.30;;;;;;6257140;28;20275;-62
2024/01/09 05:41:54;;;;;;;13.77;9.73;;;0.40;77.00;;;;;;6280565;28;20229;-63
2024/01/09 05:44:55;;;;;;;14.93;11.17;;;0.40;76.30;;;;;;6281474;28;20203;-62
2024/01/09 05:47:56;;;;;;;13.90;10.40;;;0.40;77.10;;;;;;6271426;28;20215;-63
2024/01/09 05:50:56;;;;;;;15.93;10.67;;;0.40;76.20;;;;;;6259538;28;20183;-63
2024/01/09 05:53:57;;;;;;;14.63;11.03;;;0.40;76.60;;;;;;6269529;28;20183;-63
2024/01/09 05:56:58;;;;;;;14.47;10.63;;;0.40;76.90;;;;;;6272378;28;20259;-63
2024/01/09 05:59:59;;;;;;;15.20;10.67;;;0.40;77.10;;;;;;6262534;28;20204;-63
2024/01/09 06:02:59;;;;;;;13.60;9.90;;;0.40;77.00;;;;;;6281404;28;20245;-63
2024/01/09 06:06:00;;;;;;;16.60;11.03;;;0.40;76.70;;;;;;6264499;28;20199;-62
2024/01/09 06:09:01;;;;;;;15.57;10.83;;;0.50;76.80;;;;;;6259751;28;20261;-63
2024/01/09 06:12:02;;;;;;;19.40;11.10;;;0.50;76.90;;;;;;6265133;28;20185;-62
2024/01/09 06:15:03;;;;;;;16.37;10.87;;;0.50;76.90;;;;;;6268054;28;20188;-63
2024/01/09 06:18:04;;;;;;;16.57;10.43;;;0.40;77.20;;;;;;6290412;28;20338;-63
2024/01/09 06:21:04;;;;;;;13.80;9.93;;;0.40;76.90;;;;;;6272916;28;20193;-63
2024/01/09 06:24:05;;;;;;;16.20;11.00;;;0.40;76.80;;;;;;6273924;28;20232;-62
2024/01/09 06:27:06;;;;;;;13.17;9.73;;;0.30;76.90;;;;;;6272599;28;20198;-62
2024/01/09 06:30:07;;;;;;;14.90;10.60;;;0.30;77.50;;;;;;6280317;28;20208;-63
2024/01/09 06:33:07;;;;;;;15.20;10.80;;;0.20;77.20;;;;;;6254052;28;20234;-62
2024/01/09 06:36:08;;;;;;;20.03;11.97;;;0.30;77.70;;;;;;6284168;28;20183;-63
2024/01/09 06:39:09;;;;;;;16.37;10.77;;;0.30;77.00;;;;;;6271618;28;20199;-63
2024/01/09 06:42:10;;;;;;;17.40;11.47;;;0.30;76.30;;;;;;6265247;28;20206;-63
2024/01/09 06:45:12;;;;;;;18.67;12.10;;;0.20;76.50;;;;;;6266045;28;20188;-63
2024/01/09 06:48:12;;;;;;;16.33;11.43;;;0.20;77.20;;;;;;6274413;28;20212;-63
2024/01/09 06:51:13;;;;;;;16.90;12.33;;;0.20;76.30;;;;;;6253162;28;20184;-62
2024/01/09 06:54:14;;;;;;;15.53;11.23;;;0.20;76.40;;;;;;6259846;28;20279;-63
2024/01/09 06:57:14;;;;;;;17.17;10.97;;;0.10;76.10;;;;;;6278970;28;20232;-63
2024/01/09 07:00:16;;;;;;;18.40;11.57;;;0.10;77.00;;;;;;6271267;28;20193;-63
2024/01/09 07:03:17;;;;;;;18.73;12.17;;;0.20;76.40;;;;;;6271555;28;20210;-62
2024/01/09 07:06:18;;;;;;;16.37;11.33;;;0.10;77.20;;;;;;6287539;28;20202;-63
2024/01/09 07:09:18;;;;;;;18.13;12.03;;;0.20;77.50;;;;;;6262976;28;20223;-63
2024/01/09 07:12:19;;;;;;;16.73;12.53;;;0.30;77.50;;;;;;6269501;28;20180;-63
2024/01/09 07:15:20;;;;;;;16.07;11.20;;;0.30;77.30;;;;;;6268426;28;20238;-62
2024/01/09 07:18:24;;;;;;;15.13;10.93;;;0.40;76.90;;;;;;6265068;28;20276;-62
2024/01/09 07:21:25;;;;;;;14.30;10.57;;;0.30;76.80;;;;;;6266569;28;20417;-63
2024/01/09 07:24:25;;;;;;;14.43;10.40;;;0.40;76.70;;;;;;6305146;28;20195;-63
2024/01/09 07:27:26;;;;;;;17.33;10.67;;;0.30;77.50;;;;;;6270755;28;20190;-62
2024/01/09 07:30:27;;;;;;;19.87;11.03;;;0.30;78.00;;;;;;6257527;28;20287;-63
2024/01/09 07:33:27;;;;;;;16.93;12.27;;;0.40;76.80;;;;;;6276095;28;20192;-63
2024/01/09 07:36:28;;;;;;;18.37;10.97;;;0.40;77.30;;;;;;6287876;28;20191;-63
2024/01/09 07:39:29;;;;;;;16.23;11.77;;;0.40;77.30;;;;;;6267651;28;20652;-63
2024/01/09 07:42:29;;;;;;;15.60;11.03;;;0.40;77.60;;;;;;6283702;28;20242;-63
2024/01/09 07:45:30;;;;;;;15.40;11.27;;;0.40;77.40;;;;;;6289183;28;20192;-62
2024/01/09 07:48:31;;;;;;;15.40;10.90;;;0.40;77.60;;;;;;6275790;28;20208;-63
2024/01/09 07:51:32;;;;;;;17.47;11.93;;;0.40;77.80;;;;;;6271296;28;20196;-62
2024/01/09 07:54:33;;;;;;;14.80;11.23;;;0.50;77.60;;;;;;6290219;28;20218;-63
2024/01/09 07:57:34;;;;;;;17.60;11.23;;;0.60;77.50;;;;;;6276467;28;20244;-62
2024/01/09 08:00:35;;;;;;;18.27;12.17;;;0.60;77.50;;;;;;6276791;28;20206;-63
2024/01/09 08:03:36;;;;;;;17.87;11.43;;;0.60;77.10;;;;;;6275995;28;20195;-63
2024/01/09 08:06:37;;;;;;;15.93;11.27;;;0.60;76.70;;;;;;6291363;28;20255;-63
2024/01/09 08:09:38;;;;;;;17.90;12.90;;;0.60;77.30;;;;;;6273107;28;20215;-62
2024/01/09 08:12:38;;;;;;;19.73;11.83;;;0.60;77.50;;;;;;6279795;28;20211;-63
2024/01/09 08:15:39;;;;;;;16.47;11.83;;;0.60;77.20;;;;;;6253528;28;20193;-63
2024/01/09 08:18:40;;;;;;;16.90;12.40;;;0.60;78.20;;;;;;6268624;28;20197;-63
2024/01/09 08:21:40;;;;;;;17.33;11.73;;;0.60;77.80;;;;;;6289775;28;20201;-63
2024/01/09 08:24:41;;;;;;;16.57;11.90;;;0.60;77.80;;;;;;6258137;28;20228;-63
2024/01/09 08:27:43;;;;;;;16.53;11.53;;;0.60;77.90;;;;;;6281798;28;20236;-62
2024/01/09 08:30:43;;;;;;;17.47;11.23;;;0.60;77.30;;;;;;6281104;28;20298;-63
2024/01/09 08:33:44;;;;;;;17.17;11.23;;;0.60;77.40;;;;;;6280453;28;20193;-63
2024/01/09 08:36:45;;;;;;;18.27;11.90;;;0.70;77.50;;;;;;6273089;28;20285;-63
2024/01/09 08:39:46;;;;;;;20.33;12.80;;;0.80;77.80;;;;;;6276915;28;20189;-63
2024/01/09 08:42:47;;;;;;;21.20;14.33;;;0.80;77.40;;;;;;6261147;28;20250;-63
2024/01/09 08:45:49;;;;;;;18.73;12.77;;;0.80;76.70;;;;;;6271693;28;20192;-63
2024/01/09 08:48:50;;;;;;;16.90;12.10;;;0.80;76.40;;;;;;6277201;28;20224;-62
2024/01/09 08:51:50;;;;;;;18.50;12.30;;;0.80;76.40;;;;;;6277310;28;20284;-62
2024/01/09 08:54:54;;;;;;;18.37;11.53;;;0.80;76.40;;;;;;6269231;28;20227;-63
2024/01/09 08:57:55;;;;;;;17.57;11.87;;;0.80;75.50;;;;;;6283720;28;20240;-63
2024/01/09 09:00:56;;;;;;;16.70;11.17;;;0.80;74.50;;;;;;6278192;28;20198;-63
2024/01/09 09:03:56;;;;;;;14.90;11.17;;;0.80;74.90;;;;;;6278488;28;20194;-63
2024/01/09 09:06:57;;;;;;;14.90;10.60;;;0.70;74.90;;;;;;6274141;28;20270;-63
2024/01/09 09:09:58;;;;;;;14.60;10.67;;;0.80;74.10;;;;;;6261993;28;20215;-62
2024/01/09 09:12:59;;;;;;;14.13;9.83;;;0.80;74.30;;;;;;6266426;28;20188;-63
2024/01/09 09:15:59;;;;;;;12.83;9.30;;;0.80;72.80;;;;;;6278249;28;20188;-63
2024/01/09 09:19:02;;;;;;;12.60;9.37;;;0.80;70.80;;;;;;6280212;28;20197;-62
2024/01/09 09:22:02;;;;;;;12.77;9.33;;;0.80;71.40;;;;;;6266906;28;20279;-63
2024/01/09 09:25:03;;;;;;;12.80;9.60;;;0.80;70.70;;;;;;6295004;28;20188;-63
2024/01/09 09:28:04;;;;;;;13.50;9.77;;;0.80;71.50;;;;;;6264535;28;20216;-63
2024/01/09 09:31:05;;;;;;;13.77;9.30;;;0.80;71.50;;;;;;6285778;28;20199;-63
2024/01/09 09:34:07;;;;;;;12.43;8.83;;;0.80;69.90;;;;;;6263230;28;20206;-63
2024/01/09 09:37:08;;;;;;;11.13;8.80;;;0.80;69.50;;;;;;6269612;28;20231;-63
2024/01/09 09:40:09;;;;;;;12.60;8.53;;;0.80;69.20;;;;;;6283493;28;20344;-63
2024/01/09 09:43:15;;;;;;;15.60;8.87;;;0.80;68.50;;;;;;6271171;28;20337;-63
2024/01/09 09:46:31;;;;;;;14.10;8.83;;;0.60;68.00;;;;;;6285431;28;20201;-63
2024/01/09 09:49:35;;;;;;;11.07;7.67;;;0.60;68.10;;;;;;6293330;28;20221;-63
2024/01/09 09:52:41;;;;;;;12.60;8.90;;;0.60;67.90;;;;;;6278249;28;20185;-63
2024/01/09 09:55:42;;;;;;;15.27;8.70;;;0.60;67.50;;;;;;6303181;28;20280;-63
2024/01/09 09:58:43;;;;;;;13.77;8.53;;;0.60;67.00;;;;;;6258322;28;20228;-63
2024/01/09 10:01:46;;;;;;;14.23;9.63;;;0.60;66.50;;;;;;6276774;28;20249;-63
2024/01/09 10:04:48;;;;;;;15.77;8.97;;;0.60;65.90;;;;;;6281255;28;20220;-63
2024/01/09 10:07:53;;;;;;;14.20;8.57;;;0.60;66.60;;;;;;6290738;28;20192;-63
2024/01/09 10:10:54;;;;;;;15.20;9.80;;;0.70;65.10;;;;;;6307700;28;20219;-62
2024/01/09 10:13:56;;;;;;;19.07;9.00;;;0.80;66.00;;;;;;6252048;28;20189;-63
2024/01/09 10:16:59;;;;;;;15.43;8.50;;;0.80;63.60;;;;;;6300392;28;20189;-63
2024/01/09 10:20:02;;;;;;;12.47;8.77;;;0.80;64.70;;;;;;6288485;28;20242;-63
2024/01/09 10:23:03;;;;;;;12.97;9.27;;;0.90;64.50;;;;;;6307402;28;20193;-63
2024/01/09 10:26:10;;;;;;;14.83;9.00;;;0.90;65.10;;;;;;6267020;28;20196;-63
2024/01/09 10:29:12;;;;;;;12.23;8.13;;;1.00;64.50;;;;;;6300866;28;20201;-63
2024/01/09 10:32:18;;;;;;;13.27;8.50;;;1.00;64.00;;;;;;6287510;28;20184;-63
2024/01/09 10:35:20;;;;;;;10.00;7.83;;;1.00;62.50;;;;;;6299479;28;20209;-63
2024/01/09 10:38:27;;;;;;;12.33;7.40;;;1.00;62.00;;;;;;6286176;28;20232;-63
2024/01/09 10:41:27;;;;;;;10.20;6.80;;;1.10;60.60;;;;;;6283193;28;20190;-63
2024/01/09 10:44:28;;;;;;;11.47;7.73;;;1.20;60.20;;;;;;6269047;28;20537;-62
2024/01/09 10:47:32;;;;;;;11.40;7.33;;;1.10;59.80;;;;;;6275665;28;20188;-63
2024/01/09 10:50:33;;;;;;;7.77;5.70;;;1.20;58.50;;;;;;6297042;28;20201;-63
2024/01/09 10:53:35;;;;;;;8.30;6.27;;;1.30;59.20;;;;;;6280938;28;20192;-63
2024/01/09 10:56:36;;;;;;;11.53;6.40;;;1.40;57.00;;;;;;6287937;28;20329;-63
2024/01/09 10:59:40;;;;;;;9.73;6.63;;;1.40;57.00;;;;;;6295556;28;20243;-63
2024/01/09 11:02:40;;;;;;;13.47;7.20;;;1.40;58.10;;;;;;6306800;28;20257;-63
2024/01/09 11:05:41;;;;;;;7.80;5.73;;;1.40;56.10;;;;;;6285577;28;20188;-63
2024/01/09 11:08:46;;;;;;;9.27;6.20;;;1.40;56.20;;;;;;6291711;28;20212;-63
2024/01/09 11:11:48;;;;;;;8.70;5.03;;;1.50;54.90;;;;;;6285979;28;20190;-63
2024/01/09 11:14:57;;;;;;;9.63;6.70;;;1.50;55.10;;;;;;6269851;28;20279;-63
2024/01/09 11:18:05;;;;;;;9.13;5.80;;;1.40;52.90;;;;;;6305873;28;20197;-62
2024/01/09 11:21:06;;;;;;;8.83;6.10;;;1.40;55.30;;;;;;6292455;28;20214;-60
2024/01/09 11:24:08;;;;;;;8.17;5.57;;;1.50;55.10;;;;;;6262189;28;20189;-60
2024/01/09 11:27:11;;;;;;;10.60;6.93;;;1.60;54.20;;;;;;6287517;28;20197;-61
2024/01/09 11:30:14;;;;;;;8.73;6.07;;;1.60;55.20;;;;;;6286375;28;20216;-60
2024/01/09 11:33:33;;;;;;;11.00;6.33;;;1.50;52.80;;;;;;6292409;28;20186;-60
2024/01/09 11:36:33;;;;;;;11.07;6.37;;;1.50;51.80;;;;;;6297300;28;20193;-61
2024/01/09 11:39:34;;;;;;;9.40;5.93;;;1.40;51.00;;;;;;6271752;28;20201;-60
2024/01/09 11:42:56;;;;;;;9.73;6.00;;;1.30;50.40;;;;;;6283004;28;20260;-60
2024/01/09 11:45:56;;;;;;;8.70;6.20;;;1.30;51.70;;;;;;6291953;28;20204;-60
2024/01/09 11:48:59;;;;;;;8.73;5.97;;;1.30;52.00;;;;;;6291968;28;20252;-60
2024/01/09 11:52:00;;;;;;;8.07;6.13;;;1.20;50.70;;;;;;6300497;28;20182;-60
2024/01/09 11:55:01;;;;;;;10.37;6.07;;;1.10;48.80;;;;;;6252137;28;20189;-61
2024/01/09 11:58:04;;;;;;;8.30;5.50;;;1.00;47.60;;;;;;6294190;28;20236;-60
2024/01/09 12:01:05;;;;;;;7.87;5.20;;;1.00;50.80;;;;;;6299961;28;20185;-60
2024/01/09 12:04:06;;;;;;;8.70;5.67;;;1.10;50.80;;;;;;6279429;28;20204;-60
2024/01/09 12:07:07;;;;;;;10.20;5.87;;;1.10;52.60;;;;;;6284826;28;20196;-61
2024/01/09 12:10:11;;;;;;;9.47;5.83;;;1.20;51.40;;;;;;6288769;28;20306;-60
2024/01/09 12:13:11;;;;;;;7.93;5.30;;;1.20;51.50;;;;;;6275686;28;20197;-61
2024/01/09 12:16:19;;;;;;;9.57;5.57;;;1.20;52.20;;;;;;6285354;28;20279;-60
2024/01/09 12:19:20;;;;;;;9.90;5.47;;;1.20;51.20;;;;;;6292554;28;20236;-60
2024/01/09 12:22:21;;;;;;;9.80;5.20;;;1.20;50.30;;;;;;6263284;28;20196;-60
2024/01/09 12:25:22;;;;;;;8.30;5.13;;;1.20;49.10;;;;;;6269825;28;20195;-61
2024/01/09 12:28:23;;;;;;;9.53;5.77;;;1.10;47.30;;;;;;6269182;28;20216;-60
2024/01/09 12:31:25;;;;;;;7.50;5.13;;;1.00;46.90;;;;;;6273327;28;20188;-61
2024/01/09 12:34:27;;;;;;;9.13;5.50;;;1.00;49.00;;;;;;6283462;28;20195;-60
2024/01/09 12:37:28;;;;;;;8.33;5.50;;;1.00;47.80;;;;;;6278749;28;20187;-60
2024/01/09 12:40:28;;;;;;;11.70;5.37;;;1.00;49.30;;;;;;6280301;28;20192;-60
2024/01/09 12:43:29;;;;;;;9.33;5.53;;;1.00;47.00;;;;;;6265706;28;20197;-59
2024/01/09 12:46:30;;;;;;;6.07;4.90;;;1.00;47.30;;;;;;6257714;28;20184;-59
2024/01/09 12:49:30;;;;;;;10.23;6.20;;;0.90;47.10;;;;;;6295563;28;20235;-59
2024/01/09 12:52:31;;;;;;;17.67;6.30;;;0.90;48.30;;;;;;6270336;28;20186;-60
2024/01/09 12:55:32;;;;;;;10.43;5.37;;;1.00;49.10;;;;;;6304263;28;20193;-59
2024/01/09 12:58:35;;;;;;;8.47;5.57;;;1.00;49.10;;;;;;6266635;28;20292;-60
2024/01/09 13:01:36;;;;;;;9.37;5.17;;;1.00;48.80;;;;;;6284616;28;20193;-59
2024/01/09 13:04:36;;;;;;;8.53;5.33;;;1.00;48.60;;;;;;6264187;28;20192;-60
2024/01/09 13:07:37;;;;;;;7.50;5.90;;;1.00;47.90;;;;;;6264644;28;20197;-59
2024/01/09 13:10:38;;;;;;;9.10;5.60;;;0.90;47.60;;;;;;6273363;28;20209;-60
2024/01/09 13:13:39;;;;;;;8.30;5.53;;;1.00;46.40;;;;;;6297874;28;20219;-62
2024/01/09 13:16:40;;;;;;;8.93;5.90;;;0.80;46.30;;;;;;6257902;28;20207;-62
2024/01/09 13:19:41;;;;;;;8.17;5.40;;;0.80;47.00;;;;;;6269443;28;20192;-61
2024/01/09 13:22:41;;;;;;;7.37;4.93;;;0.80;48.80;;;;;;6269561;28;20189;-61
2024/01/09 13:25:43;;;;;;;7.80;4.97;;;0.80;47.30;;;;;;6269038;28;20189;-60
2024/01/09 13:28:43;;;;;;;7.70;5.30;;;0.80;47.30;;;;;;6263077;28;20221;-61
2024/01/09 13:31:44;;;;;;;7.53;4.70;;;0.80;47.50;;;;;;6273560;28;20267;-61
2024/01/09 13:34:45;;;;;;;6.67;4.87;;;0.80;47.50;;;;;;6293012;28;20196;-60
2024/01/09 13:37:46;;;;;;;8.27;4.90;;;0.80;46.80;;;;;;6269971;28;20184;-60
2024/01/09 13:40:48;;;;;;;5.87;4.70;;;0.80;47.10;;;;;;6268702;28;20193;-60
2024/01/09 13:43:48;;;;;;;6.37;4.53;;;0.80;44.80;;;;;;6268050;28;20208;-61
2024/01/09 13:46:50;;;;;;;8.83;5.27;;;0.80;46.00;;;;;;6263110;28;20224;-61
2024/01/09 13:49:51;;;;;;;9.20;4.80;;;0.80;46.80;;;;;;6255959;28;20324;-61
2024/01/09 13:52:52;;;;;;;8.03;4.43;;;;;;;;;;6265857;28;20185;-60
2024/01/09 13:55:53;;;;;;;9.67;4.50;;;;;;;;;;6272805;28;20188;-60
2024/01/09 13:58:54;;;;;;;6.87;4.50;;;;;;;;;;6307831;28;20256;-61
2024/01/09 14:01:56;;;;;;;7.60;4.47;;;;;;;;;;6292579;28;20196;-61
2024/01/09 14:04:57;;;;;;;7.77;4.53;;;;;;;;;;6278283;28;20215;-60
2024/01/09 14:07:58;;;;;;;6.70;4.03;;;;;;;;;;6278095;28;20189;-61
2024/01/09 14:10:59;;;;;;;7.17;5.03;;;;;;;;;;6276003;28;20216;-61
2024/01/09 14:14:00;;;;;;;7.03;4.20;;;;;;;;;;6296367;28;20200;-60
2024/01/09 14:17:03;;;;;;;6.83;4.80;;;;;;;;;;6274462;28;20304;-61
2024/01/09 14:20:06;;;;;;;9.10;4.70;;;;;;;;;;6305139;28;20195;-60
2024/01/09 14:23:08;;;;;;;7.90;4.80;;;;;;;;;;6284802;28;20200;-60
2024/01/09 14:26:09;;;;;;;7.37;4.80;;;;;;;;;;6283139;28;20213;-61
2024/01/09 14:29:10;;;;;;;6.07;4.30;;;;;;;;;;6288966;28;20215;-61
2024/01/09 14:32:11;;;;;;;8.90;4.97;;;;;;;;;;6283945;28;20271;-61
2024/01/09 14:35:12;;;;;;;12.77;5.33;;;;;;;;;;6284490;28;20209;-61
2024/01/09 14:38:13;;;;;;;8.83;5.13;;;;;;;;;;6277721;28;20197;-60
2024/01/09 14:41:15;;;;;;;8.27;4.93;;;;;;;;;;6268639;28;20192;-61
2024/01/09 14:44:16;;;;;;;7.70;5.00;;;;;;;;;;6289228;28;20188;-62
2024/01/09 14:47:19;;;;;;;8.00;4.60;;;;;;;;;;6282016;28;20185;-62
2024/01/09 14:50:20;;;;;;;9.00;4.90;;;;;;;;;;6274081;28;20225;-61
2024/01/09 14:53:21;;;;;;;9.37;5.70;;;;;;;;;;6288131;28;20267;-64
2024/01/09 14:56:23;;;;;;;8.90;5.60;;;;;;;;;;6280850;28;20298;-70
2024/01/09 14:59:25;;;;;;;9.10;4.70;;;;;;;;;;6247095;28;20254;-63
2024/01/09 15:02:26;;;;;;;7.27;4.57;;;;;;;;;;6246436;28;20226;-71
2024/01/09 15:05:27;;;;;;;6.80;4.40;;;;;;;;;;6246003;28;20276;-71
2024/01/09 15:08:28;;;;;;;7.80;4.83;;;;;;;;;;6254006;28;20213;-72
2024/01/09 15:11:29;;;;;;;8.67;4.90;;;;;;;;;;6242880;28;20186;-72
2024/01/09 15:14:30;;;;;;;7.90;4.87;;;;;;;;;;6249979;28;20216;-73
2024/01/09 15:17:31;;;;;;;7.40;4.53;;;;;;;;;;6248310;28;20193;-72
2024/01/09 15:20:32;;;;;;;6.50;4.30;;;;;;;;;;6241382;28;20205;-71
2024/01/09 15:23:33;;;;;;;5.87;4.63;;;;;;;;;;6238511;28;20210;-70
2024/01/09 15:26:34;;;;;;;9.47;5.03;;;;;;;;;;6241660;28;20197;-71
2024/01/09 15:29:35;;;;;;;7.70;5.17;;;;;;;;;;6249163;28;20242;-71
2024/01/09 15:32:37;;;;;;;7.27;5.17;;;;;;;;;;6259508;28;20284;-71
2024/01/09 15:35:38;;;;;;;7.47;5.00;;;;;;;;;;6250893;28;20193;-72
2024/01/09 15:38:39;;;;;;;8.20;5.20;;;0.70;47.30;;;;;;6286606;28;20185;-71
2024/01/09 15:41:40;;;;;;;7.30;5.37;;;0.40;49.40;;;;;;6261704;28;20289;-72
2024/01/09 15:44:41;;;;;;;7.80;5.20;;;0.30;49.10;;;;;;6239508;28;20183;-72
2024/01/09 15:47:42;;;;;;;8.30;5.20;;;0.30;47.60;;;;;;6233759;28;20194;-71
2024/01/09 15:50:43;;;;;;;9.23;5.43;;;0.40;48.10;;;;;;6253768;28;20300;-72
2024/01/09 15:53:43;;;;;;;10.50;5.53;;;0.20;47.10;;;;;;6245858;28;20221;-72